createdAt,value
2018-12-21T00:00:40.378Z,1001.2
2018-12-21T00:01:42.496Z,1001.2
2018-12-21T00:02:45.144Z,1001.2
2018-12-21T00:03:47.290Z,1001.2
2018-12-21T00:04:49.418Z,1001.2
2018-12-21T00:05:51.554Z,1001.2
2018-12-21T00:06:53.935Z,1001.2
2018-12-21T00:07:56.334Z,1001.2
2018-12-21T00:09:00.571Z,1001.2
2018-12-21T00:10:02.715Z,1001.1
2018-12-21T00:11:05.811Z,1001.1
2018-12-21T00:12:07.934Z,1001.1
2018-12-21T00:13:10.325Z,1001.1
2018-12-21T00:14:12.438Z,1001
2018-12-21T00:15:14.561Z,1001
2018-12-21T00:16:16.669Z,1001
2018-12-21T00:17:18.794Z,1001
2018-12-21T00:18:20.910Z,1001
2018-12-21T00:19:23.015Z,1001
2018-12-21T00:20:25.127Z,1001
2018-12-21T00:21:27.255Z,1001.1
2018-12-21T00:22:29.353Z,1001
2018-12-21T00:23:31.759Z,1001.1
2018-12-21T00:24:33.959Z,1001
2018-12-21T00:25:36.059Z,1001
2018-12-21T00:26:38.176Z,1001
2018-12-21T00:27:40.685Z,1001
2018-12-21T00:28:43.084Z,1001
2018-12-21T00:29:45.189Z,1001
2018-12-21T00:30:47.396Z,1001
2018-12-21T00:31:49.550Z,1001
2018-12-21T00:32:51.826Z,1001
2018-12-21T00:33:53.959Z,1001
2018-12-21T00:34:56.071Z,1001
2018-12-21T00:35:58.481Z,1000.9
2018-12-21T00:37:00.595Z,1001
2018-12-21T00:38:02.717Z,1001
2018-12-21T00:39:06.978Z,1001.1
2018-12-21T00:40:09.093Z,1001
2018-12-21T00:41:11.203Z,1000.9
2018-12-21T00:42:13.327Z,1000.9
2018-12-21T00:43:15.421Z,1001
2018-12-21T00:44:17.545Z,1001
2018-12-21T00:45:19.658Z,1001
2018-12-21T00:46:21.764Z,1001
2018-12-21T00:47:23.883Z,1001
2018-12-21T00:48:26.282Z,1001
2018-12-21T00:49:28.390Z,1001
2018-12-21T00:50:30.513Z,1000.9
2018-12-21T00:51:32.914Z,1001
2018-12-21T00:52:35.020Z,1001
2018-12-21T00:53:37.134Z,1001
2018-12-21T00:54:39.252Z,1000.9
2018-12-21T00:55:41.349Z,1000.9
2018-12-21T00:56:43.460Z,1001
2018-12-21T00:57:45.580Z,1000.9
2018-12-21T00:58:47.688Z,1000.9
2018-12-21T00:59:49.817Z,1000.9
2018-12-21T01:00:51.932Z,1000.9
2018-12-21T01:01:54.043Z,1001
2018-12-21T01:02:56.145Z,1000.9
2018-12-21T01:03:58.281Z,1000.9
2018-12-21T01:05:00.387Z,1001
2018-12-21T01:06:02.585Z,1000.9
2018-12-21T01:07:04.715Z,1000.9
2018-12-21T01:08:06.814Z,1000.9
2018-12-21T01:09:09.226Z,1001
2018-12-21T01:10:11.352Z,1001
2018-12-21T01:11:13.467Z,1001
2018-12-21T01:12:15.620Z,1001
2018-12-21T01:13:18.150Z,1001
2018-12-21T01:14:20.375Z,1001
2018-12-21T01:15:22.488Z,1001
2018-12-21T01:16:24.625Z,1001
2018-12-21T01:17:26.833Z,1001
2018-12-21T01:18:28.946Z,1001
2018-12-21T01:19:31.079Z,1001
2018-12-21T01:20:33.194Z,1001
2018-12-21T01:21:39.353Z,1001
2018-12-21T01:22:41.744Z,1001
2018-12-21T01:23:43.877Z,1001
2018-12-21T01:24:46.066Z,1001
2018-12-21T01:25:48.211Z,1001
2018-12-21T01:26:50.426Z,1001
2018-12-21T01:27:52.849Z,1001
2018-12-21T01:28:54.971Z,1001
2018-12-21T01:29:57.391Z,1001
2018-12-21T01:30:59.517Z,1001
2018-12-21T01:32:01.917Z,1001
2018-12-21T01:33:04.050Z,1001
2018-12-21T01:34:06.442Z,1001
2018-12-21T01:35:08.552Z,1000.9
2018-12-21T01:36:11.036Z,1000.9
2018-12-21T01:37:13.166Z,1000.9
2018-12-21T01:38:15.269Z,1000.9
2018-12-21T01:39:17.382Z,1000.9
2018-12-21T01:40:19.542Z,1000.9
2018-12-21T01:41:21.640Z,1000.9
2018-12-21T01:42:24.429Z,1001
2018-12-21T01:43:26.537Z,1000.9
2018-12-21T01:44:28.659Z,1000.9
2018-12-21T01:45:30.761Z,1000.9
2018-12-21T01:46:32.888Z,1000.9
2018-12-21T01:47:34.999Z,1000.9
2018-12-21T01:48:37.407Z,1000.9
2018-12-21T01:49:39.539Z,1000.9
2018-12-21T01:50:41.647Z,1000.8
2018-12-21T01:51:47.623Z,1000.8
2018-12-21T01:52:49.750Z,1000.9
2018-12-21T01:53:52.154Z,1000.9
2018-12-21T01:54:54.261Z,1000.9
2018-12-21T01:55:56.384Z,1000.9
2018-12-21T01:56:58.489Z,1000.8
2018-12-21T01:58:00.674Z,1000.8
2018-12-21T01:59:02.909Z,1000.8
2018-12-21T02:00:05.026Z,1000.9
2018-12-21T02:01:07.138Z,1000.7
2018-12-21T02:02:09.268Z,1000.8
2018-12-21T02:03:11.381Z,1000.8
2018-12-21T02:04:13.494Z,1000.8
2018-12-21T02:05:16.023Z,1000.8
2018-12-21T02:06:18.129Z,1000.7
2018-12-21T02:07:20.255Z,1000.7
2018-12-21T02:08:22.681Z,1000.8
2018-12-21T02:09:25.782Z,1000.7
2018-12-21T02:10:27.890Z,1000.7
2018-12-21T02:11:30.013Z,1000.7
2018-12-21T02:12:32.126Z,1000.7
2018-12-21T02:13:34.223Z,1000.6
2018-12-21T02:14:36.655Z,1000.6
2018-12-21T02:15:38.780Z,1000.6
2018-12-21T02:16:41.291Z,1000.6
2018-12-21T02:17:43.397Z,1000.6
2018-12-21T02:18:45.532Z,1000.6
2018-12-21T02:19:47.650Z,1000.6
2018-12-21T02:20:50.079Z,1000.6
2018-12-21T02:21:56.387Z,1000.6
2018-12-21T02:22:58.489Z,1000.6
2018-12-21T02:24:01.272Z,1000.6
2018-12-21T02:25:03.382Z,1000.5
2018-12-21T02:26:05.484Z,1000.5
2018-12-21T02:27:08.003Z,1000.5
2018-12-21T02:28:10.124Z,1000.5
2018-12-21T02:29:12.234Z,1000.5
2018-12-21T02:30:14.365Z,1000.5
2018-12-21T02:31:16.882Z,1000.5
2018-12-21T02:32:19.598Z,1000.5
2018-12-21T02:33:21.751Z,1000.5
2018-12-21T02:34:23.870Z,1000.6
2018-12-21T02:35:26.008Z,1000.5
2018-12-21T02:36:28.515Z,1000.5
2018-12-21T02:37:31.199Z,1000.5
2018-12-21T02:38:33.626Z,1000.5
2018-12-21T02:39:35.716Z,1000.5
2018-12-21T02:40:38.128Z,1000.5
2018-12-21T02:41:40.239Z,1000.5
2018-12-21T02:42:42.371Z,1000.5
2018-12-21T02:43:44.587Z,1000.5
2018-12-21T02:44:47.007Z,1000.5
2018-12-21T02:45:49.124Z,1000.4
2018-12-21T02:46:51.247Z,1000.5
2018-12-21T02:47:53.495Z,1000.5
2018-12-21T02:48:55.637Z,1000.5
2018-12-21T02:49:57.765Z,1000.4
2018-12-21T02:50:59.882Z,1000.4
2018-12-21T02:52:06.044Z,1000.4
2018-12-21T02:53:08.178Z,1000.5
2018-12-21T02:54:10.955Z,1000.4
2018-12-21T02:55:13.098Z,1000.4
2018-12-21T02:56:15.486Z,1000.4
2018-12-21T02:57:17.826Z,1000.4
2018-12-21T02:58:19.945Z,1000.4
2018-12-21T02:59:22.110Z,1000.4
2018-12-21T03:00:24.509Z,1000.4
2018-12-21T03:01:27.018Z,1000.3
2018-12-21T03:02:29.522Z,1000.3
2018-12-21T03:03:31.671Z,1000.3
2018-12-21T03:04:33.939Z,1000.3
2018-12-21T03:05:36.045Z,1000.3
2018-12-21T03:06:38.209Z,1000.2
2018-12-21T03:07:40.900Z,1000.2
2018-12-21T03:08:43.041Z,1000.3
2018-12-21T03:09:45.166Z,1000.2
2018-12-21T03:10:47.792Z,1000.3
2018-12-21T03:11:49.908Z,1000.2
2018-12-21T03:12:52.320Z,1000.2
2018-12-21T03:13:54.434Z,1000.2
2018-12-21T03:14:56.571Z,1000.2
2018-12-21T03:15:58.705Z,1000.2
2018-12-21T03:17:01.482Z,1000.1
2018-12-21T03:18:03.628Z,1000.2
2018-12-21T03:19:06.331Z,1000.2
2018-12-21T03:20:08.434Z,1000.2
2018-12-21T03:21:10.957Z,1000.2
2018-12-21T03:22:15.400Z,1000.2
2018-12-21T03:23:17.514Z,1000.1
2018-12-21T03:24:19.633Z,1000.1
2018-12-21T03:25:21.774Z,1000.1
2018-12-21T03:26:23.917Z,1000.1
2018-12-21T03:27:26.046Z,1000.1
2018-12-21T03:28:28.167Z,1000.1
2018-12-21T03:29:30.559Z,1000.1
2018-12-21T03:30:32.718Z,1000.1
2018-12-21T03:31:35.170Z,1000
2018-12-21T03:32:38.280Z,1000
2018-12-21T03:33:40.424Z,1000
2018-12-21T03:34:42.909Z,1000.1
2018-12-21T03:35:45.419Z,1000
2018-12-21T03:36:47.983Z,1000
2018-12-21T03:37:50.095Z,1000
2018-12-21T03:38:52.202Z,1000
2018-12-21T03:39:54.328Z,1000
2018-12-21T03:40:56.567Z,999.9
2018-12-21T03:41:58.686Z,999.9
2018-12-21T03:43:00.825Z,1000
2018-12-21T03:44:02.949Z,999.9
2018-12-21T03:45:05.342Z,1000
2018-12-21T03:46:08.071Z,999.9
2018-12-21T03:47:10.251Z,999.9
2018-12-21T03:48:12.364Z,999.9
2018-12-21T03:49:14.560Z,999.9
2018-12-21T03:50:16.963Z,999.9
2018-12-21T03:51:19.102Z,999.9
2018-12-21T03:52:25.207Z,999.9
2018-12-21T03:53:27.312Z,999.8
2018-12-21T03:54:29.445Z,999.8
2018-12-21T03:55:31.986Z,999.8
2018-12-21T03:56:34.111Z,999.8
2018-12-21T03:57:36.216Z,999.8
2018-12-21T03:58:38.386Z,999.8
2018-12-21T03:59:41.111Z,999.8
2018-12-21T04:00:43.271Z,999.8
2018-12-21T04:01:45.402Z,999.8
2018-12-21T04:02:47.900Z,999.7
2018-12-21T04:03:50.027Z,999.7
2018-12-21T04:04:52.170Z,999.7
2018-12-21T04:05:55.629Z,999.7
2018-12-21T04:06:58.350Z,999.6
2018-12-21T04:08:01.065Z,999.6
2018-12-21T04:09:03.186Z,999.6
2018-12-21T04:10:05.600Z,999.6
2018-12-21T04:11:07.720Z,999.6
2018-12-21T04:12:10.229Z,999.6
2018-12-21T04:13:12.846Z,999.6
2018-12-21T04:14:15.279Z,999.5
2018-12-21T04:15:17.673Z,999.6
2018-12-21T04:16:19.788Z,999.5
2018-12-21T04:17:21.922Z,999.5
2018-12-21T04:18:24.049Z,999.6
2018-12-21T04:19:26.188Z,999.5
2018-12-21T04:20:28.298Z,999.5
2018-12-21T04:21:30.729Z,999.5
2018-12-21T04:22:34.706Z,999.5
2018-12-21T04:23:37.282Z,999.5
2018-12-21T04:24:39.398Z,999.5
2018-12-21T04:25:41.604Z,999.5
2018-12-21T04:26:43.731Z,999.5
2018-12-21T04:27:45.836Z,999.5
2018-12-21T04:28:48.257Z,999.5
2018-12-21T04:29:50.388Z,999.6
2018-12-21T04:30:52.510Z,999.6
2018-12-21T04:31:55.017Z,999.5
2018-12-21T04:32:57.429Z,999.5
2018-12-21T04:33:59.850Z,999.5
2018-12-21T04:35:02.392Z,999.5
2018-12-21T04:36:04.885Z,999.5
2018-12-21T04:37:07.049Z,999.5
2018-12-21T04:38:09.204Z,999.5
2018-12-21T04:39:11.474Z,999.4
2018-12-21T04:40:13.882Z,999.3
2018-12-21T04:41:16.050Z,999.4
2018-12-21T04:42:18.959Z,999.4
2018-12-21T04:43:21.805Z,999.4
2018-12-21T04:44:23.951Z,999.4
2018-12-21T04:45:26.659Z,999.4
2018-12-21T04:46:29.087Z,999.3
2018-12-21T04:47:31.198Z,999.3
2018-12-21T04:48:33.622Z,999.3
2018-12-21T04:49:36.019Z,999.3
2018-12-21T04:50:38.147Z,999.3
2018-12-21T04:51:40.273Z,999.3
2018-12-21T04:52:43.816Z,999.3
2018-12-21T04:53:45.943Z,999.2
2018-12-21T04:54:48.062Z,999.2
2018-12-21T04:55:50.505Z,999.2
2018-12-21T04:56:52.612Z,999.2
2018-12-21T04:57:54.763Z,999.2
2018-12-21T04:58:56.874Z,999.2
2018-12-21T04:59:58.997Z,999.2
2018-12-21T05:01:01.129Z,999.2
2018-12-21T05:02:03.233Z,999.2
2018-12-21T05:03:05.351Z,999.2
2018-12-21T05:04:07.470Z,999.2
2018-12-21T05:05:09.630Z,999.2
2018-12-21T05:06:12.126Z,999.2
2018-12-21T05:07:14.235Z,999.2
2018-12-21T05:08:16.662Z,999.2
2018-12-21T05:09:18.858Z,999.2
2018-12-21T05:10:20.974Z,999.1
2018-12-21T05:11:23.111Z,999.1
2018-12-21T05:12:25.239Z,999.1
2018-12-21T05:13:27.361Z,999.1
2018-12-21T05:14:29.470Z,999.2
2018-12-21T05:15:31.592Z,999.2
2018-12-21T05:16:34.078Z,999.2
2018-12-21T05:17:36.483Z,999.2
2018-12-21T05:18:38.624Z,999.2
2018-12-21T05:19:40.736Z,999.2
2018-12-21T05:20:42.840Z,999.2
2018-12-21T05:21:45.081Z,999.1
2018-12-21T05:22:52.702Z,999.1
2018-12-21T05:23:54.819Z,999.1
2018-12-21T05:24:56.960Z,999.1
2018-12-21T05:25:59.181Z,999.1
2018-12-21T05:27:01.365Z,999.2
2018-12-21T05:28:04.351Z,999
2018-12-21T05:29:06.753Z,999
2018-12-21T05:30:08.850Z,999.1
2018-12-21T05:31:10.976Z,999
2018-12-21T05:32:13.125Z,999
2018-12-21T05:33:15.244Z,999
2018-12-21T05:34:18.050Z,999
2018-12-21T05:35:20.159Z,998.9
2018-12-21T05:36:22.292Z,998.9
2018-12-21T05:37:24.539Z,998.9
2018-12-21T05:38:27.048Z,998.8
2018-12-21T05:39:29.738Z,998.9
2018-12-21T05:40:31.851Z,998.9
2018-12-21T05:41:34.251Z,998.8
2018-12-21T05:42:36.344Z,998.9
2018-12-21T05:43:38.459Z,998.8
2018-12-21T05:44:40.576Z,998.8
2018-12-21T05:45:42.700Z,998.8
2018-12-21T05:46:44.817Z,998.8
2018-12-21T05:47:46.924Z,998.8
2018-12-21T05:48:49.042Z,998.7
2018-12-21T05:49:51.431Z,998.8
2018-12-21T05:50:53.553Z,998.7
2018-12-21T05:51:55.674Z,998.7
2018-12-21T05:53:01.301Z,998.7
2018-12-21T05:54:03.419Z,998.7
2018-12-21T05:55:05.612Z,998.7
2018-12-21T05:56:08.000Z,998.7
2018-12-21T05:57:10.110Z,998.6
2018-12-21T05:58:12.239Z,998.6
2018-12-21T05:59:14.354Z,998.6
2018-12-21T06:00:16.768Z,998.5
2018-12-21T06:01:18.879Z,998.5
2018-12-21T06:02:21.081Z,998.6
2018-12-21T06:03:23.563Z,998.5
2018-12-21T06:04:25.709Z,998.5
2018-12-21T06:05:27.841Z,998.5
2018-12-21T06:06:30.065Z,998.5
2018-12-21T06:07:34.199Z,998.4
2018-12-21T06:08:36.312Z,998.4
2018-12-21T06:09:38.421Z,998.4
2018-12-21T06:10:40.596Z,998.4
2018-12-21T06:11:42.722Z,998.4
2018-12-21T06:12:44.954Z,998.3
2018-12-21T06:13:47.073Z,998.3
2018-12-21T06:14:49.594Z,998.3
2018-12-21T06:15:51.693Z,998.3
2018-12-21T06:16:53.825Z,998.3
2018-12-21T06:17:55.938Z,998.2
2018-12-21T06:18:58.040Z,998.2
2018-12-21T06:20:00.167Z,998.2
2018-12-21T06:21:02.879Z,998.2
2018-12-21T06:22:04.994Z,998.2
2018-12-21T06:23:10.005Z,998.2
2018-12-21T06:24:12.411Z,998.2
2018-12-21T06:25:14.549Z,998.1
2018-12-21T06:26:17.344Z,998.1
2018-12-21T06:27:19.447Z,998.1
2018-12-21T06:28:21.618Z,998.1
2018-12-21T06:29:24.043Z,998.1
2018-12-21T06:30:26.579Z,998.1
2018-12-21T06:31:28.714Z,998.1
2018-12-21T06:32:31.093Z,998.1
2018-12-21T06:33:33.230Z,998.1
2018-12-21T06:34:35.355Z,998
2018-12-21T06:35:37.476Z,998
2018-12-21T06:36:39.579Z,998
2018-12-21T06:37:41.703Z,997.9
2018-12-21T06:38:43.834Z,998
2018-12-21T06:39:46.232Z,997.9
2018-12-21T06:40:48.359Z,997.9
2018-12-21T06:41:50.467Z,997.9
2018-12-21T06:42:52.583Z,997.9
2018-12-21T06:43:54.698Z,998
2018-12-21T06:44:56.827Z,997.9
2018-12-21T06:45:59.290Z,997.9
2018-12-21T06:47:01.409Z,997.9
2018-12-21T06:48:03.528Z,997.9
2018-12-21T06:49:05.623Z,997.9
2018-12-21T06:50:07.745Z,997.9
2018-12-21T06:51:09.854Z,997.8
2018-12-21T06:52:12.094Z,997.8
2018-12-21T06:53:18.408Z,997.8
2018-12-21T06:54:20.546Z,997.9
2018-12-21T06:55:22.658Z,997.9
2018-12-21T06:56:24.783Z,997.8
2018-12-21T06:57:26.907Z,997.8
2018-12-21T06:58:29.017Z,997.8
2018-12-21T06:59:31.136Z,997.8
2018-12-21T07:00:33.263Z,997.7
2018-12-21T07:01:35.650Z,997.8
2018-12-21T07:02:37.774Z,997.8
2018-12-21T07:03:39.891Z,997.8
2018-12-21T07:04:42.014Z,997.8
2018-12-21T07:05:44.149Z,997.8
2018-12-21T07:06:46.261Z,997.8
2018-12-21T07:07:48.373Z,997.7
2018-12-21T07:08:50.757Z,997.8
2018-12-21T07:09:52.887Z,997.8
2018-12-21T07:10:55.033Z,997.7
2018-12-21T07:11:57.147Z,997.8
2018-12-21T07:12:59.292Z,997.7
2018-12-21T07:14:01.678Z,997.7
2018-12-21T07:15:03.881Z,997.7
2018-12-21T07:16:05.996Z,997.7
2018-12-21T07:17:08.116Z,997.7
2018-12-21T07:18:10.213Z,997.7
2018-12-21T07:19:12.343Z,997.7
2018-12-21T07:20:14.726Z,997.7
2018-12-21T07:21:16.831Z,997.7
2018-12-21T07:22:18.957Z,997.6
2018-12-21T07:23:27.619Z,997.6
2018-12-21T07:24:30.041Z,997.6
2018-12-21T07:25:32.170Z,997.6
2018-12-21T07:26:34.286Z,997.5
2018-12-21T07:27:36.390Z,997.5
2018-12-21T07:28:38.597Z,997.5
2018-12-21T07:29:40.706Z,997.5
2018-12-21T07:30:42.828Z,997.5
2018-12-21T07:31:44.955Z,997.4
2018-12-21T07:32:47.451Z,997.4
2018-12-21T07:33:49.653Z,997.3
2018-12-21T07:34:51.798Z,997.4
2018-12-21T07:35:53.917Z,997.3
2018-12-21T07:36:56.330Z,997.3
2018-12-21T07:37:58.445Z,997.3
2018-12-21T07:39:00.695Z,997.3
2018-12-21T07:40:03.106Z,997.3
2018-12-21T07:41:05.608Z,997.3
2018-12-21T07:42:07.994Z,997.3
2018-12-21T07:44:42.480Z,997.3
2018-12-21T07:45:44.637Z,997.3
2018-12-21T07:46:46.656Z,997.3
2018-12-21T07:47:48.693Z,997.3
2018-12-21T07:48:50.725Z,997.3
2018-12-21T07:49:52.744Z,997.3
2018-12-21T07:50:54.781Z,997.3
2018-12-21T07:51:56.818Z,997.3
2018-12-21T07:52:58.834Z,997.3
2018-12-21T07:54:00.875Z,997.3
2018-12-21T07:55:02.911Z,997.2
2018-12-21T07:56:04.934Z,997.2
2018-12-21T07:57:06.952Z,997.2
2018-12-21T07:58:08.988Z,997.2
2018-12-21T07:59:11.013Z,997.2
2018-12-21T08:00:13.043Z,997.2
2018-12-21T08:01:15.083Z,997.2
2018-12-21T08:02:17.095Z,997.1
2018-12-21T08:03:19.445Z,997
2018-12-21T08:04:21.750Z,997
2018-12-21T08:05:23.780Z,997.1
2018-12-21T08:06:25.799Z,997
2018-12-21T08:07:27.833Z,997
2018-12-21T08:08:29.858Z,996.9
2018-12-21T08:09:32.273Z,996.9
2018-12-21T08:10:34.320Z,996.9
2018-12-21T08:11:36.341Z,996.8
2018-12-21T08:12:38.374Z,996.8
2018-12-21T08:13:40.408Z,996.8
2018-12-21T08:14:42.443Z,996.8
2018-12-21T08:15:44.458Z,996.8
2018-12-21T08:16:46.505Z,996.8
2018-12-21T08:17:48.541Z,996.8
2018-12-21T08:18:50.565Z,996.8
2018-12-21T08:19:52.581Z,996.8
2018-12-21T08:20:54.609Z,996.8
2018-12-21T08:21:56.642Z,996.7
2018-12-21T08:22:58.957Z,996.7
2018-12-21T08:24:00.987Z,996.7
2018-12-21T08:25:03.017Z,996.7
2018-12-21T08:26:05.315Z,996.7
2018-12-21T08:27:07.358Z,996.7
2018-12-21T08:28:09.380Z,996.6
2018-12-21T08:29:11.403Z,996.6
2018-12-21T08:30:13.418Z,996.6
2018-12-21T08:31:15.735Z,996.6
2018-12-21T08:32:17.757Z,996.6
2018-12-21T08:33:19.787Z,996.6
2018-12-21T08:34:22.587Z,996.5
2018-12-21T08:35:24.723Z,996.5
2018-12-21T08:36:27.050Z,996.5
2018-12-21T08:37:29.086Z,996.4
2018-12-21T08:38:31.117Z,996.5
2018-12-21T08:39:33.135Z,996.5
2018-12-21T08:40:35.165Z,996.5
2018-12-21T08:41:37.191Z,996.4
2018-12-21T08:42:39.260Z,996.5
2018-12-21T08:43:41.303Z,996.5
2018-12-21T08:44:43.731Z,996.5
2018-12-21T08:45:46.040Z,996.5
2018-12-21T08:46:48.071Z,996.5
2018-12-21T08:47:50.096Z,996.5
2018-12-21T08:48:53.168Z,996.5
2018-12-21T08:49:55.206Z,996.4
2018-12-21T08:50:57.226Z,996.4
2018-12-21T08:51:59.556Z,996.4
2018-12-21T08:53:01.589Z,996.4
2018-12-21T08:54:03.905Z,996.3
2018-12-21T08:55:05.935Z,996.4
2018-12-21T08:56:08.248Z,996.3
2018-12-21T08:57:10.276Z,996.4
2018-12-21T08:58:12.308Z,996.4
2018-12-21T08:59:14.330Z,996.3
2018-12-21T09:00:16.374Z,996.3
2018-12-21T09:01:18.398Z,996.3
2018-12-21T09:02:21.452Z,996.3
2018-12-21T09:03:23.473Z,996.3
2018-12-21T09:04:32.635Z,996.3
2018-12-21T09:05:34.659Z,996.3
2018-12-21T09:06:36.685Z,996.3
2018-12-21T09:07:38.729Z,996.3
2018-12-21T09:08:40.745Z,996.2
2018-12-21T09:09:42.784Z,996.2
2018-12-21T09:10:44.840Z,996.2
2018-12-21T09:11:47.167Z,996.2
2018-12-21T09:12:49.190Z,996.1
2018-12-21T09:13:51.224Z,996.1
2018-12-21T09:14:53.254Z,996.1
2018-12-21T09:15:55.299Z,996
2018-12-21T09:16:57.338Z,996.1
2018-12-21T09:17:59.358Z,996.1
2018-12-21T09:19:01.391Z,996.1
2018-12-21T09:20:03.532Z,996
2018-12-21T09:21:05.557Z,996
2018-12-21T09:22:07.584Z,996
2018-12-21T09:23:09.622Z,996
2018-12-21T09:24:11.640Z,996
2018-12-21T09:25:13.663Z,996
2018-12-21T09:26:15.980Z,996
2018-12-21T09:27:18.003Z,995.9
2018-12-21T09:28:20.024Z,995.9
2018-12-21T09:29:22.066Z,995.9
2018-12-21T09:30:24.088Z,995.8
2018-12-21T09:31:26.114Z,995.8
2018-12-21T09:32:28.533Z,995.8
2018-12-21T09:33:30.548Z,995.7
2018-12-21T09:34:32.587Z,995.7
2018-12-21T09:35:34.617Z,995.7
2018-12-21T09:36:36.652Z,995.7
2018-12-21T09:37:38.689Z,995.6
2018-12-21T09:38:41.193Z,995.6
2018-12-21T09:39:43.251Z,995.6
2018-12-21T09:40:45.286Z,995.6
2018-12-21T09:41:47.647Z,995.6
2018-12-21T09:42:49.721Z,995.6
2018-12-21T09:43:51.780Z,995.5
2018-12-21T09:44:53.833Z,995.5
2018-12-21T09:45:55.875Z,995.5
2018-12-21T09:46:57.911Z,995.4
2018-12-21T09:47:59.944Z,995.3
2018-12-21T09:49:01.978Z,995.3
2018-12-21T09:50:04.402Z,995.3
2018-12-21T09:51:06.749Z,995.2
2018-12-21T09:52:08.792Z,995.2
2018-12-21T09:53:10.933Z,995.2
2018-12-21T09:54:12.961Z,995.2
2018-12-21T09:55:15.020Z,995.2
2018-12-21T09:56:17.447Z,995.1
2018-12-21T09:57:19.484Z,995.1
2018-12-21T09:58:21.522Z,995
2018-12-21T09:59:23.856Z,995
2018-12-21T10:00:26.195Z,994.9
2018-12-21T10:01:28.241Z,994.9
2018-12-21T10:02:36.161Z,994.9
2018-12-21T10:03:38.494Z,994.9
2018-12-21T10:04:40.523Z,994.8
2018-12-21T10:05:42.567Z,994.8
2018-12-21T10:06:44.610Z,994.8
2018-12-21T10:07:46.640Z,994.8
2018-12-21T10:08:48.690Z,994.8
2018-12-21T10:09:50.727Z,994.8
2018-12-21T10:10:53.079Z,994.7
2018-12-21T10:11:55.413Z,994.7
2018-12-21T10:12:57.464Z,994.7
2018-12-21T10:13:59.526Z,994.6
2018-12-21T10:15:01.585Z,994.7
2018-12-21T10:16:04.007Z,994.6
2018-12-21T10:17:06.056Z,994.6
2018-12-21T10:18:08.121Z,994.5
2018-12-21T10:19:10.166Z,994.6
2018-12-21T10:20:12.217Z,994.5
2018-12-21T10:21:14.320Z,994.5
2018-12-21T10:22:16.361Z,994.5
2018-12-21T10:23:18.416Z,994.5
2018-12-21T10:24:20.434Z,994.4
2018-12-21T10:25:22.473Z,994.4
2018-12-21T10:26:24.805Z,994.4
2018-12-21T10:27:26.840Z,994.4
2018-12-21T10:28:28.891Z,994.3
2018-12-21T10:29:30.928Z,994.3
2018-12-21T10:30:32.977Z,994.3
2018-12-21T10:31:35.030Z,994.3
2018-12-21T10:32:37.357Z,994.3
2018-12-21T10:33:39.386Z,994.3
2018-12-21T10:34:41.852Z,994.2
2018-12-21T10:35:44.185Z,994.2
2018-12-21T10:36:46.238Z,994.2
2018-12-21T10:37:48.290Z,994.1
2018-12-21T10:38:50.338Z,994.1
2018-12-21T10:39:52.683Z,994.1
2018-12-21T10:40:54.733Z,994
2018-12-21T10:41:57.135Z,994
2018-12-21T10:42:59.468Z,994
2018-12-21T10:44:01.528Z,993.9
2018-12-21T10:45:03.875Z,993.9
2018-12-21T10:46:05.932Z,993.9
2018-12-21T10:47:08.276Z,993.9
2018-12-21T10:48:10.327Z,993.9
2018-12-21T10:49:12.387Z,993.8
2018-12-21T10:50:14.716Z,993.8
2018-12-21T10:51:16.762Z,993.8
2018-12-21T10:52:19.104Z,993.8
2018-12-21T10:53:21.153Z,993.8
2018-12-21T10:54:27.252Z,993.7
2018-12-21T10:55:29.622Z,993.7
2018-12-21T10:56:32.234Z,993.7
2018-12-21T10:57:34.286Z,993.6
2018-12-21T10:58:36.622Z,993.6
2018-12-21T10:59:43.821Z,993.6
2018-12-21T11:00:46.015Z,993.6
2018-12-21T11:01:48.062Z,993.5
2018-12-21T11:02:50.110Z,993.6
2018-12-21T11:03:52.493Z,993.5
2018-12-21T11:04:54.585Z,993.5
2018-12-21T11:05:56.641Z,993.5
2018-12-21T11:06:58.706Z,993.4
2018-12-21T11:08:00.765Z,993.5
2018-12-21T11:09:02.840Z,993.3
2018-12-21T11:10:04.998Z,993.4
2018-12-21T11:11:07.111Z,993.3
2018-12-21T11:12:09.269Z,993.3
2018-12-21T11:13:11.785Z,993.3
2018-12-21T11:14:14.202Z,993.2
2018-12-21T11:15:16.260Z,993.2
2018-12-21T11:16:18.309Z,993.2
2018-12-21T11:17:20.349Z,993.1
2018-12-21T11:18:22.513Z,993.1
2018-12-21T11:19:24.560Z,993
2018-12-21T11:20:26.630Z,993
2018-12-21T11:21:28.668Z,993
2018-12-21T11:22:30.740Z,992.9
2018-12-21T11:23:32.779Z,992.9
2018-12-21T11:24:35.925Z,992.9
2018-12-21T11:25:37.996Z,992.9
2018-12-21T11:26:40.042Z,992.8
2018-12-21T11:27:42.091Z,992.8
2018-12-21T11:28:44.128Z,992.8
2018-12-21T11:29:46.192Z,992.8
2018-12-21T11:30:48.521Z,992.7
2018-12-21T11:31:50.581Z,992.8
2018-12-21T11:32:52.910Z,992.7
2018-12-21T11:33:55.348Z,992.6
2018-12-21T11:34:57.406Z,992.6
2018-12-21T11:35:59.456Z,992.7
2018-12-21T11:37:01.587Z,992.6
2018-12-21T11:38:03.687Z,992.6
2018-12-21T11:39:05.885Z,992.5
2018-12-21T11:40:08.036Z,992.4
2018-12-21T11:41:10.097Z,992.4
2018-12-21T11:42:12.157Z,992.4
2018-12-21T11:43:14.365Z,992.4
2018-12-21T11:44:16.417Z,992.4
2018-12-21T11:45:18.793Z,992.3
2018-12-21T11:46:20.834Z,992.3
2018-12-21T11:47:22.958Z,992.2
2018-12-21T11:48:25.287Z,992.2
2018-12-21T11:49:27.377Z,992.2
2018-12-21T11:50:29.414Z,992.1
2018-12-21T11:51:31.472Z,992.2
2018-12-21T11:52:33.549Z,992.1
2018-12-21T11:53:35.618Z,992
2018-12-21T11:54:44.925Z,992.1
2018-12-21T11:55:46.965Z,992
2018-12-21T11:56:49.109Z,992
2018-12-21T11:57:51.454Z,992
2018-12-21T11:58:53.881Z,992
2018-12-21T11:59:55.918Z,992
2018-12-21T12:00:58.250Z,992
2018-12-21T12:02:00.282Z,992
2018-12-21T12:03:02.312Z,991.9
2018-12-21T12:04:04.362Z,991.9
2018-12-21T12:05:07.350Z,991.9
2018-12-21T12:06:09.401Z,991.9
2018-12-21T12:07:11.460Z,991.8
2018-12-21T12:08:13.787Z,991.8
2018-12-21T12:09:15.855Z,991.7
2018-12-21T12:10:18.190Z,991.7
2018-12-21T12:11:20.234Z,991.7
2018-12-21T12:12:22.362Z,991.8
2018-12-21T12:13:24.469Z,991.7
2018-12-21T12:14:26.527Z,991.7
2018-12-21T12:15:29.242Z,991.7
2018-12-21T12:16:31.304Z,991.7
2018-12-21T12:17:33.658Z,991.6
2018-12-21T12:18:35.694Z,991.5
2018-12-21T12:19:37.733Z,991.5
2018-12-21T12:20:40.056Z,991.5
2018-12-21T12:21:42.107Z,991.5
2018-12-21T12:22:44.153Z,991.5
2018-12-21T12:23:46.192Z,991.5
2018-12-21T12:24:53.546Z,991.4
2018-12-21T12:25:57.351Z,991.4
2018-12-21T12:26:59.398Z,991.3
2018-12-21T12:28:01.469Z,991.4
2018-12-21T12:29:04.085Z,991.3
2018-12-21T12:30:06.148Z,991.3
2018-12-21T12:31:08.543Z,991.3
2018-12-21T12:32:10.968Z,991.3
2018-12-21T12:33:13.003Z,991.2
2018-12-21T12:34:15.045Z,991.2
2018-12-21T12:35:17.091Z,991.1
2018-12-21T12:36:19.446Z,991.1
2018-12-21T12:37:22.057Z,991.1
2018-12-21T12:38:24.108Z,991.1
2018-12-21T12:39:26.147Z,991
2018-12-21T12:40:28.205Z,991
2018-12-21T12:41:30.234Z,990.9
2018-12-21T12:42:32.268Z,990.9
2018-12-21T12:43:34.334Z,990.9
2018-12-21T12:44:36.410Z,990.9
2018-12-21T12:45:38.448Z,990.8
2018-12-21T12:46:40.486Z,990.8
2018-12-21T12:47:42.811Z,990.8
2018-12-21T12:48:44.892Z,990.7
2018-12-21T12:49:46.923Z,990.8
2018-12-21T12:50:48.956Z,990.7
2018-12-21T12:51:50.999Z,990.7
2018-12-21T12:52:53.138Z,990.7
2018-12-21T12:53:55.167Z,990.7
2018-12-21T12:55:03.428Z,990.6
2018-12-21T12:56:05.760Z,990.7
2018-12-21T12:57:07.804Z,990.6
2018-12-21T12:58:09.827Z,990.6
2018-12-21T12:59:12.140Z,990.6
2018-12-21T13:00:14.451Z,990.5
2018-12-21T13:01:16.530Z,990.5
2018-12-21T13:02:18.586Z,990.5
2018-12-21T13:03:20.630Z,990.5
2018-12-21T13:04:22.688Z,990.4
2018-12-21T13:05:24.794Z,990.4
2018-12-21T13:06:26.841Z,990.4
2018-12-21T13:07:28.879Z,990.3
2018-12-21T13:08:30.917Z,990.3
2018-12-21T13:09:32.958Z,990.3
2018-12-21T13:10:35.713Z,990.3
2018-12-21T13:11:37.746Z,990.3
2018-12-21T13:12:39.888Z,990.2
2018-12-21T13:13:41.956Z,990.2
2018-12-21T13:14:44.267Z,990.2
2018-12-21T13:15:46.310Z,990.1
2018-12-21T13:16:48.358Z,990.1
2018-12-21T13:17:50.733Z,990.1
2018-12-21T13:18:52.785Z,990
2018-12-21T13:19:54.903Z,990
2018-12-21T13:20:56.950Z,990
2018-12-21T13:21:59.267Z,990
2018-12-21T13:23:01.608Z,989.9
2018-12-21T13:24:03.663Z,989.9
2018-12-21T13:25:11.946Z,989.9